createdAt,value
2023-01-31T00:00:12.000Z,1008.8
2023-01-31T00:01:23.000Z,1008.8
2023-01-31T00:02:35.000Z,1008.8
2023-01-31T00:03:48.000Z,1008.9
2023-01-31T00:05:00.000Z,1008.8
2023-01-31T00:06:12.000Z,1008.8
2023-01-31T00:07:24.000Z,1008.8
2023-01-31T00:08:36.000Z,1008.9
2023-01-31T00:09:49.000Z,1008.9
2023-01-31T00:11:01.000Z,1008.9
2023-01-31T00:12:13.000Z,1008.9
2023-01-31T00:13:25.000Z,1009
2023-01-31T00:14:37.000Z,1009
2023-01-31T00:15:50.000Z,1009
2023-01-31T00:17:02.000Z,1009
2023-01-31T00:18:13.000Z,1009.1
2023-01-31T00:19:25.000Z,1009.1
2023-01-31T00:20:37.000Z,1009.1
2023-01-31T00:21:49.000Z,1009.2
2023-01-31T00:23:02.000Z,1009.1
2023-01-31T00:24:14.000Z,1009.1
2023-01-31T00:25:26.000Z,1009.2
2023-01-31T00:26:38.000Z,1009.2
2023-01-31T00:27:50.000Z,1009.2
2023-01-31T00:29:03.000Z,1009.2
2023-01-31T00:30:15.000Z,1009.3
2023-01-31T00:31:27.000Z,1009.1
2023-01-31T00:32:39.000Z,1009.2
2023-01-31T00:33:50.000Z,1009.2
2023-01-31T00:35:03.000Z,1009.2
2023-01-31T00:36:15.000Z,1009.2
2023-01-31T00:38:39.000Z,1009.5
2023-01-31T00:39:51.000Z,1009.4
2023-01-31T00:41:03.000Z,1009.3
2023-01-31T00:42:16.000Z,1009.3
2023-01-31T00:43:28.000Z,1009.2
2023-01-31T00:44:40.000Z,1009.2
2023-01-31T00:45:11.000Z,1009.3
2023-01-31T00:45:52.000Z,1009.3
2023-01-31T00:47:04.000Z,1009.2
2023-01-31T00:48:17.000Z,1009.3
2023-01-31T00:49:28.000Z,1009.3
2023-01-31T00:50:40.000Z,1009.1
2023-01-31T00:51:52.000Z,1009.1
2023-01-31T00:53:04.000Z,1009.2
2023-01-31T00:54:16.000Z,1009.2
2023-01-31T00:55:29.000Z,1009.2
2023-01-31T00:56:41.000Z,1009.3
2023-01-31T00:57:53.000Z,1009.4
2023-01-31T00:59:05.000Z,1009.4
2023-01-31T01:00:17.000Z,1009.5
2023-01-31T01:01:30.000Z,1009.4
2023-01-31T01:02:42.000Z,1009.5
2023-01-31T01:03:54.000Z,1009.5
2023-01-31T01:05:05.000Z,1009.5
2023-01-31T01:06:17.000Z,1009.5
2023-01-31T01:07:30.000Z,1009.6
2023-01-31T01:08:42.000Z,1009.6
2023-01-31T01:09:54.000Z,1009.5
2023-01-31T01:11:06.000Z,1009.5
2023-01-31T01:12:18.000Z,1009.5
2023-01-31T01:13:30.000Z,1009.5
2023-01-31T01:14:43.000Z,1009.5
2023-01-31T01:17:07.000Z,1009.5
2023-01-31T01:18:19.000Z,1009.5
2023-01-31T01:19:31.000Z,1009.6
2023-01-31T01:20:43.000Z,1009.5
2023-01-31T01:21:55.000Z,1009.6
2023-01-31T01:23:07.000Z,1009.7
2023-01-31T01:23:39.390Z,1009.5
2023-01-31T01:24:19.000Z,1009.6
2023-01-31T01:25:31.000Z,1009.6
2023-01-31T01:26:44.000Z,1009.7
2023-01-31T01:27:56.000Z,1009.6
2023-01-31T01:29:08.000Z,1009.7
2023-01-31T01:30:20.000Z,1009.7
2023-01-31T01:32:44.000Z,1009.6
2023-01-31T01:33:57.000Z,1009.6
2023-01-31T01:35:09.000Z,1009.7
2023-01-31T01:36:21.000Z,1009.6
2023-01-31T01:37:32.000Z,1009.7
2023-01-31T01:38:44.000Z,1009.7
2023-01-31T01:39:16.822Z,1009.7
2023-01-31T01:39:57.000Z,1009.6
2023-01-31T01:41:09.000Z,1009.7
2023-01-31T01:42:21.000Z,1009.7
2023-01-31T01:43:33.000Z,1009.6
2023-01-31T01:45:58.000Z,1009.7
2023-01-31T01:47:10.000Z,1009.8
2023-01-31T01:48:22.000Z,1009.8
2023-01-31T01:49:34.000Z,1009.8
2023-01-31T01:50:46.000Z,1009.8
2023-01-31T01:51:58.000Z,1009.9
2023-01-31T01:52:29.894Z,1009.6
2023-01-31T01:53:10.000Z,1009.9
2023-01-31T01:54:22.000Z,1009.9
2023-01-31T01:55:34.000Z,1009.9
2023-01-31T01:56:46.000Z,1009.9
2023-01-31T01:57:58.000Z,1009.9
2023-01-31T02:00:23.000Z,1009.9
2023-01-31T02:01:35.000Z,1009.9
2023-01-31T02:02:47.000Z,1009.9
2023-01-31T02:03:59.000Z,1009.9
2023-01-31T02:05:11.000Z,1009.9
2023-01-31T02:06:24.000Z,1009.9
2023-01-31T02:06:55.133Z,1009.9
2023-01-31T02:07:36.000Z,1009.9
2023-01-31T02:08:47.000Z,1009.9
2023-01-31T02:09:59.000Z,1009.9
2023-01-31T02:11:11.000Z,1009.9
2023-01-31T02:12:24.000Z,1010
2023-01-31T02:13:36.000Z,1010
2023-01-31T02:14:48.000Z,1010
2023-01-31T02:16:00.000Z,1010.1
2023-01-31T02:17:12.000Z,1010.1
2023-01-31T02:18:25.000Z,1010.1
2023-01-31T02:19:37.000Z,1010
2023-01-31T02:20:49.000Z,1010.1
2023-01-31T02:22:01.000Z,1010.1
2023-01-31T02:23:13.000Z,1010.2
2023-01-31T02:24:24.000Z,1010.3
2023-01-31T02:25:37.000Z,1010.3
2023-01-31T02:26:49.000Z,1010.3
2023-01-31T02:28:01.000Z,1010.2
2023-01-31T02:29:13.000Z,1010.3
2023-01-31T02:30:25.000Z,1010.3
2023-01-31T02:31:38.000Z,1010.3
2023-01-31T02:32:50.000Z,1010.2
2023-01-31T02:34:02.000Z,1010.3
2023-01-31T02:35:14.000Z,1010.3
2023-01-31T02:36:26.000Z,1010.2
2023-01-31T02:37:39.000Z,1010.3
2023-01-31T02:38:51.000Z,1010.3
2023-01-31T02:40:02.000Z,1010.3
2023-01-31T02:41:14.000Z,1010.3
2023-01-31T02:43:38.000Z,1010.3
2023-01-31T02:44:51.000Z,1010.3
2023-01-31T02:46:03.000Z,1010.4
2023-01-31T02:47:15.000Z,1010.3
2023-01-31T02:48:27.000Z,1010.3
2023-01-31T02:49:39.000Z,1010.3
2023-01-31T02:50:10.896Z,1010.3
2023-01-31T02:50:52.000Z,1010.3
2023-01-31T02:52:04.000Z,1010.4
2023-01-31T02:53:16.000Z,1010.4
2023-01-31T02:54:28.000Z,1010.4
2023-01-31T02:55:39.000Z,1010.4
2023-01-31T02:58:04.000Z,1010.4
2023-01-31T03:00:28.000Z,1010.4
2023-01-31T03:01:40.000Z,1010.4
2023-01-31T03:04:05.000Z,1010.4
2023-01-31T03:04:36.143Z,1010.4
2023-01-31T03:06:29.000Z,1010.4
2023-01-31T03:07:00.511Z,1010.4
2023-01-31T03:07:41.000Z,1010.4
2023-01-31T03:08:53.000Z,1010.4
2023-01-31T03:10:06.000Z,1010.4
2023-01-31T03:10:37.075Z,1010.4
2023-01-31T03:11:17.000Z,1010.5
2023-01-31T03:12:29.000Z,1010.4
2023-01-31T03:13:01.460Z,1010.5
2023-01-31T03:13:41.000Z,1010.5
2023-01-31T03:14:53.000Z,1010.5
2023-01-31T03:16:05.000Z,1010.4
2023-01-31T03:17:17.000Z,1010.3
2023-01-31T03:18:29.000Z,1010.4
2023-01-31T03:19:41.000Z,1010.5
2023-01-31T03:22:05.000Z,1010.4
2023-01-31T03:23:18.000Z,1010.5
2023-01-31T03:24:30.000Z,1010.5
2023-01-31T03:25:42.000Z,1010.5
2023-01-31T03:26:54.000Z,1010.4
2023-01-31T03:28:06.000Z,1010.4
2023-01-31T03:28:37.901Z,1010.5
2023-01-31T03:29:19.000Z,1010.4
2023-01-31T03:30:31.000Z,1010.4
2023-01-31T03:31:42.000Z,1010.4
2023-01-31T03:32:54.000Z,1010.5
2023-01-31T03:34:06.000Z,1010.5
2023-01-31T03:35:19.000Z,1010.5
2023-01-31T03:36:31.000Z,1010.5
2023-01-31T03:37:43.000Z,1010.5
2023-01-31T03:38:55.000Z,1010.5
2023-01-31T03:40:07.000Z,1010.6
2023-01-31T03:41:19.000Z,1010.7
2023-01-31T03:42:32.000Z,1010.6
2023-01-31T03:44:56.000Z,1010.7
2023-01-31T03:46:08.000Z,1010.6
2023-01-31T03:47:19.000Z,1010.7
2023-01-31T03:48:32.000Z,1010.7
2023-01-31T03:49:44.000Z,1010.7
2023-01-31T03:50:56.000Z,1010.7
2023-01-31T03:51:28.455Z,1010.7
2023-01-31T03:52:08.000Z,1010.6
2023-01-31T03:53:20.000Z,1010.6
2023-01-31T03:54:32.000Z,1010.6
2023-01-31T03:55:45.000Z,1010.6
2023-01-31T03:56:57.000Z,1010.7
2023-01-31T03:58:09.000Z,1010.7
2023-01-31T03:59:21.000Z,1010.7
2023-01-31T04:00:33.000Z,1010.7
2023-01-31T04:01:46.000Z,1010.6
2023-01-31T04:02:57.000Z,1010.6
2023-01-31T04:04:09.000Z,1010.7
2023-01-31T04:05:21.000Z,1010.6
2023-01-31T04:06:33.000Z,1010.6
2023-01-31T04:07:46.000Z,1010.6
2023-01-31T04:08:58.000Z,1010.6
2023-01-31T04:10:10.000Z,1010.7
2023-01-31T04:11:22.000Z,1010.7
2023-01-31T04:12:34.000Z,1010.7
2023-01-31T04:13:46.000Z,1010.8
2023-01-31T04:14:59.000Z,1010.6
2023-01-31T04:16:11.000Z,1010.7
2023-01-31T04:17:23.000Z,1010.6
2023-01-31T04:18:34.000Z,1010.7
2023-01-31T04:19:46.000Z,1010.7
2023-01-31T04:20:59.000Z,1010.7
2023-01-31T04:22:11.000Z,1010.7
2023-01-31T04:24:35.000Z,1010.7
2023-01-31T04:25:47.000Z,1010.7
2023-01-31T04:27:00.000Z,1010.7
2023-01-31T04:28:12.000Z,1010.7
2023-01-31T04:29:24.000Z,1010.7
2023-01-31T04:30:36.000Z,1010.7
2023-01-31T04:31:07.650Z,1010.7
2023-01-31T04:31:48.000Z,1010.7
2023-01-31T04:33:00.000Z,1010.7
2023-01-31T04:34:12.000Z,1010.7
2023-01-31T04:35:24.000Z,1010.7
2023-01-31T04:36:36.000Z,1010.7
2023-01-31T04:37:48.000Z,1010.7
2023-01-31T04:39:00.000Z,1010.7
2023-01-31T04:40:13.000Z,1010.8
2023-01-31T04:41:25.000Z,1010.7
2023-01-31T04:42:37.000Z,1010.7
2023-01-31T04:43:49.000Z,1010.7
2023-01-31T04:45:01.000Z,1010.7
2023-01-31T04:46:14.000Z,1010.7
2023-01-31T04:47:26.000Z,1010.7
2023-01-31T04:48:38.000Z,1010.7
2023-01-31T04:51:01.000Z,1010.7
2023-01-31T04:52:13.000Z,1010.7
2023-01-31T04:53:26.000Z,1010.7
2023-01-31T04:54:38.000Z,1010.7
2023-01-31T04:55:50.000Z,1010.6
2023-01-31T04:57:02.000Z,1010.7
2023-01-31T04:57:33.775Z,1010.7
2023-01-31T04:58:14.000Z,1010.7
2023-01-31T04:59:27.000Z,1010.5
2023-01-31T05:00:39.000Z,1010.6
2023-01-31T05:01:51.000Z,1010.6
2023-01-31T05:03:03.000Z,1010.5
2023-01-31T05:04:15.000Z,1010.5
2023-01-31T05:05:27.000Z,1010.6
2023-01-31T05:06:39.000Z,1010.6
2023-01-31T05:07:51.000Z,1010.6
2023-01-31T05:10:15.000Z,1010.6
2023-01-31T05:11:27.000Z,1010.6
2023-01-31T05:13:52.000Z,1010.7
2023-01-31T05:15:04.000Z,1010.7
2023-01-31T05:16:16.000Z,1010.7
2023-01-31T05:16:47.783Z,1010.6
2023-01-31T05:17:28.000Z,1010.7
2023-01-31T05:18:41.000Z,1010.7
2023-01-31T05:19:53.000Z,1010.7
2023-01-31T05:20:24.330Z,1010.6
2023-01-31T05:21:04.000Z,1010.7
2023-01-31T05:22:16.000Z,1010.8
2023-01-31T05:23:28.000Z,1010.7
2023-01-31T05:24:41.000Z,1010.8
2023-01-31T05:25:53.000Z,1010.7
2023-01-31T05:27:05.000Z,1010.8
2023-01-31T05:28:17.000Z,1010.8
2023-01-31T05:29:29.000Z,1010.8
2023-01-31T05:30:41.000Z,1010.8
2023-01-31T05:31:54.000Z,1010.9
2023-01-31T05:33:06.000Z,1010.9
2023-01-31T05:34:18.000Z,1010.9
2023-01-31T05:35:30.000Z,1011
2023-01-31T05:36:41.000Z,1010.9
2023-01-31T05:37:54.000Z,1010.9
2023-01-31T05:39:06.000Z,1010.9
2023-01-31T05:40:18.000Z,1010.9
2023-01-31T05:41:30.000Z,1010.9
2023-01-31T05:42:42.000Z,1010.9
2023-01-31T05:43:54.000Z,1010.9
2023-01-31T05:45:07.000Z,1010.9
2023-01-31T05:46:19.000Z,1010.9
2023-01-31T05:47:31.000Z,1010.9
2023-01-31T05:48:43.000Z,1010.9
2023-01-31T05:51:08.000Z,1011
2023-01-31T05:52:19.000Z,1011
2023-01-31T05:53:31.000Z,1011
2023-01-31T05:54:43.000Z,1011
2023-01-31T05:55:55.000Z,1011.1
2023-01-31T05:57:08.000Z,1011.1
2023-01-31T05:57:40.135Z,1011
2023-01-31T05:58:20.000Z,1011
2023-01-31T05:59:32.000Z,1011
2023-01-31T06:01:56.000Z,1011
2023-01-31T06:04:21.000Z,1011
2023-01-31T06:05:33.000Z,1011
2023-01-31T06:07:56.000Z,1011
2023-01-31T06:08:28.000Z,1011
2023-01-31T06:09:08.000Z,1011.1
2023-01-31T06:10:21.000Z,1011.1
2023-01-31T06:10:53.000Z,1011
2023-01-31T06:12:45.000Z,1011.1
2023-01-31T06:13:57.000Z,1011
2023-01-31T06:14:29.000Z,1011
2023-01-31T06:15:09.000Z,1011
2023-01-31T06:17:34.000Z,1011.1
2023-01-31T06:18:46.000Z,1011.1
2023-01-31T06:19:17.522Z,1011
2023-01-31T06:19:58.000Z,1011
2023-01-31T06:21:10.000Z,1011.1
2023-01-31T06:22:22.000Z,1011.1
2023-01-31T06:23:34.000Z,1011.1
2023-01-31T06:24:06.262Z,1011
2023-01-31T06:24:46.000Z,1011
2023-01-31T06:25:58.000Z,1011
2023-01-31T06:28:22.000Z,1011.1
2023-01-31T06:29:35.000Z,1011.1
2023-01-31T06:30:47.000Z,1011.1
2023-01-31T06:31:59.000Z,1011.2
2023-01-31T06:34:23.000Z,1011.2
2023-01-31T06:34:54.957Z,1011
2023-01-31T06:35:36.000Z,1011.1
2023-01-31T06:36:48.000Z,1011.1
2023-01-31T06:38:00.000Z,1011.1
2023-01-31T06:39:11.000Z,1011.1
2023-01-31T06:40:23.000Z,1011.1
2023-01-31T06:40:55.891Z,1011.2
2023-01-31T06:41:35.000Z,1011.2
2023-01-31T06:42:48.000Z,1011.1
2023-01-31T06:44:00.000Z,1011.3
2023-01-31T06:45:12.000Z,1011.4
2023-01-31T06:46:24.000Z,1011.4
2023-01-31T06:47:36.000Z,1011.4
2023-01-31T06:48:49.000Z,1011.5
2023-01-31T06:50:01.000Z,1011.4
2023-01-31T06:51:13.000Z,1011.4
2023-01-31T06:52:25.000Z,1011.5
2023-01-31T06:53:37.000Z,1011.4
2023-01-31T06:54:49.000Z,1011.4
2023-01-31T06:56:01.000Z,1011.4
2023-01-31T06:57:13.000Z,1011.4
2023-01-31T06:58:25.000Z,1011.5
2023-01-31T06:59:37.000Z,1011.5
2023-01-31T07:00:49.000Z,1011.5
2023-01-31T07:02:02.000Z,1011.5
2023-01-31T07:03:14.000Z,1011.5
2023-01-31T07:04:26.000Z,1011.5
2023-01-31T07:05:38.000Z,1011.5
2023-01-31T07:06:50.000Z,1011.5
2023-01-31T07:08:03.000Z,1011.5
2023-01-31T07:09:15.000Z,1011.6
2023-01-31T07:10:27.000Z,1011.5
2023-01-31T07:11:38.000Z,1011.5
2023-01-31T07:12:50.000Z,1011.5
2023-01-31T07:14:03.000Z,1011.5
2023-01-31T07:15:15.000Z,1011.4
2023-01-31T07:16:27.000Z,1011.4
2023-01-31T07:17:39.000Z,1011.4
2023-01-31T07:18:50.000Z,1011.4
2023-01-31T07:20:02.000Z,1011.4
2023-01-31T07:21:15.000Z,1011.4
2023-01-31T07:22:27.000Z,1011.3
2023-01-31T07:23:39.000Z,1011.3
2023-01-31T07:24:51.000Z,1011.3
2023-01-31T07:26:03.000Z,1011.3
2023-01-31T07:27:16.000Z,1011.2
2023-01-31T07:28:28.000Z,1011.2
2023-01-31T07:29:40.000Z,1011.1
2023-01-31T07:30:52.000Z,1011.2
2023-01-31T07:32:04.000Z,1011.2
2023-01-31T07:33:16.000Z,1011.1
2023-01-31T07:34:28.000Z,1011.1
2023-01-31T07:35:40.000Z,1011.1
2023-01-31T07:36:52.000Z,1011.1
2023-01-31T07:38:04.000Z,1011.1
2023-01-31T07:39:16.000Z,1011.1
2023-01-31T07:40:29.000Z,1011.1
2023-01-31T07:41:41.000Z,1011.1
2023-01-31T07:42:53.000Z,1011
2023-01-31T07:44:05.000Z,1011
2023-01-31T07:45:17.000Z,1011
2023-01-31T07:46:30.000Z,1010.9
2023-01-31T07:47:42.000Z,1010.9
2023-01-31T07:48:54.000Z,1010.9
2023-01-31T07:50:05.000Z,1010.9
2023-01-31T07:51:17.000Z,1010.9
2023-01-31T07:52:30.000Z,1010.9
2023-01-31T07:53:42.000Z,1010.9
2023-01-31T07:54:54.000Z,1010.9
2023-01-31T07:56:06.000Z,1010.8
2023-01-31T07:57:18.000Z,1010.8
2023-01-31T07:58:30.000Z,1010.8
2023-01-31T07:59:43.000Z,1010.8
2023-01-31T08:00:55.000Z,1010.9
2023-01-31T08:02:07.000Z,1010.8
2023-01-31T08:03:19.000Z,1010.8
2023-01-31T08:05:43.000Z,1010.8
2023-01-31T08:06:55.000Z,1010.8
2023-01-31T08:08:07.000Z,1010.8
2023-01-31T08:09:19.000Z,1010.7
2023-01-31T08:10:31.000Z,1010.8
2023-01-31T08:11:43.000Z,1010.7
2023-01-31T08:12:16.157Z,1010.8
2023-01-31T08:12:56.000Z,1010.8
2023-01-31T08:15:20.000Z,1010.8
2023-01-31T08:16:32.000Z,1010.8
2023-01-31T08:17:44.000Z,1010.7
2023-01-31T08:18:57.000Z,1010.7
2023-01-31T08:20:09.000Z,1010.7
2023-01-31T08:21:20.000Z,1010.7
2023-01-31T08:21:52.658Z,1010.7
2023-01-31T08:22:32.000Z,1010.7
2023-01-31T08:23:44.000Z,1010.7
2023-01-31T08:24:57.000Z,1010.7
2023-01-31T08:26:09.000Z,1010.6
2023-01-31T08:27:21.000Z,1010.7
2023-01-31T08:28:33.000Z,1010.6
2023-01-31T08:29:45.000Z,1010.6
2023-01-31T08:30:57.000Z,1010.6
2023-01-31T08:32:10.000Z,1010.7
2023-01-31T08:33:22.000Z,1010.6
2023-01-31T08:34:34.000Z,1010.5
2023-01-31T08:36:57.000Z,1010.5
2023-01-31T08:38:10.000Z,1010.5
2023-01-31T08:39:22.000Z,1010.5
2023-01-31T08:40:34.000Z,1010.5
2023-01-31T08:41:46.000Z,1010.5
2023-01-31T08:42:58.000Z,1010.5
2023-01-31T08:43:31.037Z,1010.6
2023-01-31T08:45:23.000Z,1010.5
2023-01-31T08:46:35.000Z,1010.4
2023-01-31T08:47:47.000Z,1010.4
2023-01-31T08:48:59.000Z,1010.4
2023-01-31T08:51:24.000Z,1010.4
2023-01-31T08:51:55.353Z,1010.5
2023-01-31T08:52:36.000Z,1010.4
2023-01-31T08:53:47.000Z,1010.4
2023-01-31T08:54:59.000Z,1010.3
2023-01-31T08:56:11.000Z,1010.3
2023-01-31T08:57:24.000Z,1010.4
2023-01-31T08:57:56.292Z,1010.5
2023-01-31T08:58:36.000Z,1010.4
2023-01-31T08:59:48.000Z,1010.4
2023-01-31T09:01:00.000Z,1010.3
2023-01-31T09:02:12.000Z,1010.3
2023-01-31T09:03:25.000Z,1010.3
2023-01-31T09:04:37.000Z,1010.3
2023-01-31T09:05:49.000Z,1010.3
2023-01-31T09:07:01.000Z,1010.3
2023-01-31T09:09:24.000Z,1010.2
2023-01-31T09:10:37.000Z,1010.3
2023-01-31T09:11:49.000Z,1010.3
2023-01-31T09:13:01.000Z,1010.3
2023-01-31T09:14:13.000Z,1010.2
2023-01-31T09:15:25.000Z,1010.3
2023-01-31T09:15:58.000Z,1010.3
2023-01-31T09:16:38.000Z,1010.2
2023-01-31T09:17:50.000Z,1010.2
2023-01-31T09:19:02.000Z,1010.2
2023-01-31T09:20:14.000Z,1010.2
2023-01-31T09:21:26.000Z,1010.1
2023-01-31T09:22:39.000Z,1010.1
2023-01-31T09:23:51.000Z,1010.1
2023-01-31T09:25:02.000Z,1010.1
2023-01-31T09:27:26.000Z,1010.1
2023-01-31T09:28:38.000Z,1010.1
2023-01-31T09:29:51.000Z,1010.1
2023-01-31T09:31:03.000Z,1010.1
2023-01-31T09:32:15.000Z,1010.1
2023-01-31T09:33:27.000Z,1010.1
2023-01-31T09:33:58.917Z,1010.2
2023-01-31T09:34:39.000Z,1010.1
2023-01-31T09:37:04.000Z,1010.1
2023-01-31T09:38:16.000Z,1010.1
2023-01-31T09:39:28.000Z,1010.1
2023-01-31T09:40:39.000Z,1010.1
2023-01-31T09:41:52.000Z,1010
2023-01-31T09:43:04.000Z,1010
2023-01-31T09:43:36.409Z,1010.1
2023-01-31T09:44:16.000Z,1010.1
2023-01-31T09:45:28.000Z,1010.1
2023-01-31T09:46:40.000Z,1010
2023-01-31T09:49:05.000Z,1010
2023-01-31T09:51:29.000Z,1010
2023-01-31T09:52:41.000Z,1010.1
2023-01-31T09:53:53.000Z,1010.1
2023-01-31T09:55:37.288Z,1010.1
2023-01-31T09:56:17.000Z,1010
2023-01-31T09:57:29.000Z,1010.1
2023-01-31T09:58:01.000Z,1010
2023-01-31T09:58:41.000Z,1009.9
2023-01-31T09:59:53.000Z,1009.9
2023-01-31T10:02:18.000Z,1010
2023-01-31T10:02:50.000Z,1010.1
2023-01-31T10:03:07.000Z,1009.2
2023-01-31T10:03:30.000Z,1009.9
2023-01-31T10:04:00.000Z,1008.7
2023-01-31T10:04:19.000Z,1009.1
2023-01-31T10:04:42.000Z,1009.9
2023-01-31T10:05:11.000Z,1008.7
2023-01-31T10:05:54.000Z,1009.9
2023-01-31T10:07:06.000Z,1009.8
2023-01-31T10:08:19.000Z,1009.8
2023-01-31T10:08:50.353Z,1009.9
2023-01-31T10:09:31.000Z,1009.9
2023-01-31T10:10:43.000Z,1009.7
2023-01-31T10:11:54.000Z,1009.7
2023-01-31T10:13:06.000Z,1009.8
2023-01-31T10:14:19.000Z,1009.8
2023-01-31T10:15:31.000Z,1009.7
2023-01-31T10:16:43.000Z,1009.7
2023-01-31T10:17:55.000Z,1009.7
2023-01-31T10:19:07.000Z,1009.6
2023-01-31T10:20:19.000Z,1009.7
2023-01-31T10:21:32.000Z,1009.6
2023-01-31T10:22:44.000Z,1009.5
2023-01-31T10:23:56.000Z,1009.4
2023-01-31T10:25:08.000Z,1009.5
2023-01-31T10:26:20.000Z,1009.3
2023-01-31T10:27:32.000Z,1009.5
2023-01-31T10:28:44.000Z,1009.4
2023-01-31T10:29:56.000Z,1009.4
2023-01-31T10:31:08.000Z,1009.4
2023-01-31T10:32:20.000Z,1009.4
2023-01-31T10:33:33.000Z,1009.3
2023-01-31T10:46:39.000Z,1009.2
2023-01-31T10:50:14.000Z,1009.1
2023-01-31T10:51:26.000Z,1009.2
2023-01-31T10:52:38.000Z,1009.1
2023-01-31T10:53:50.000Z,1009.2
2023-01-31T10:55:03.000Z,1009.2
2023-01-31T10:56:15.000Z,1009.1
2023-01-31T10:57:27.000Z,1009
2023-01-31T10:58:39.000Z,1009.1
2023-01-31T10:59:51.000Z,1009
2023-01-31T11:01:03.000Z,1009
2023-01-31T11:02:16.000Z,1008.9
2023-01-31T11:03:28.348Z,1008.9
2023-01-31T11:04:40.000Z,1008.9
2023-01-31T11:05:51.000Z,1008.8
2023-01-31T11:07:03.000Z,1008.8
2023-01-31T11:08:16.000Z,1008.8
2023-01-31T11:09:28.000Z,1008.8
2023-01-31T11:10:40.000Z,1008.7
2023-01-31T11:21:41.000Z,1008.6
2023-01-31T11:22:52.000Z,1008.5
2023-01-31T11:24:04.000Z,1008.5
2023-01-31T11:25:17.000Z,1008.4
2023-01-31T11:26:29.000Z,1008.3
2023-01-31T11:27:41.000Z,1008.3
2023-01-31T11:28:53.000Z,1008.2
2023-01-31T11:30:05.000Z,1008.3
2023-01-31T11:31:18.000Z,1008.2
2023-01-31T11:32:30.000Z,1008.1
2023-01-31T11:33:42.000Z,1008.2
2023-01-31T11:34:54.000Z,1008.1
2023-01-31T11:36:06.000Z,1008.1
2023-01-31T11:37:18.000Z,1008
2023-01-31T11:38:30.000Z,1008
2023-01-31T11:39:42.000Z,1008
2023-01-31T11:40:54.000Z,1008
2023-01-31T11:42:06.000Z,1007.9
2023-01-31T11:43:18.000Z,1007.9
2023-01-31T11:44:31.000Z,1007.9
2023-01-31T11:45:42.000Z,1007.9
2023-01-31T11:46:53.000Z,1007.8
2023-01-31T11:48:04.000Z,1007.8
2023-01-31T11:49:15.000Z,1007.8
2023-01-31T11:50:28.000Z,1007.7
2023-01-31T11:51:40.000Z,1007.8
2023-01-31T11:52:52.000Z,1007.6
2023-01-31T11:54:04.000Z,1007.6
2023-01-31T11:55:16.000Z,1007.6
2023-01-31T11:56:29.000Z,1007.5
2023-01-31T11:57:41.000Z,1007.6
2023-01-31T11:58:53.000Z,1007.5
2023-01-31T12:00:05.000Z,1007.5
2023-01-31T12:01:17.000Z,1007.6
2023-01-31T12:02:29.000Z,1007.4
2023-01-31T12:03:42.000Z,1007.4
2023-01-31T12:04:53.000Z,1007.3
2023-01-31T12:06:05.000Z,1007.3
2023-01-31T12:07:17.000Z,1007.3
2023-01-31T12:08:29.000Z,1007.3
2023-01-31T12:09:42.000Z,1007.2
2023-01-31T12:10:54.000Z,1007.1
2023-01-31T12:12:06.000Z,1007.1
2023-01-31T12:13:17.000Z,1007.1
2023-01-31T12:14:28.000Z,1007.1
2023-01-31T12:15:40.076Z,1007.1
2023-01-31T12:16:51.000Z,1007.1
2023-01-31T12:18:03.000Z,1007
2023-01-31T12:19:15.646Z,1007
2023-01-31T12:20:27.000Z,1007
2023-01-31T12:21:39.000Z,1007
2023-01-31T12:22:52.000Z,1006.9
2023-01-31T12:24:04.000Z,1006.9
2023-01-31T12:25:16.000Z,1007
2023-01-31T12:26:28.000Z,1007
2023-01-31T12:27:40.000Z,1006.8
2023-01-31T12:28:53.000Z,1006.9
2023-01-31T12:30:05.000Z,1006.9
2023-01-31T12:31:17.000Z,1006.8
2023-01-31T12:32:28.000Z,1006.8
2023-01-31T12:33:40.000Z,1006.8
2023-01-31T12:34:53.000Z,1006.7
2023-01-31T12:36:05.000Z,1006.7
2023-01-31T12:37:17.000Z,1006.7
2023-01-31T12:38:29.000Z,1006.6
2023-01-31T12:39:41.000Z,1006.5
2023-01-31T12:40:53.000Z,1006.6
2023-01-31T12:42:05.000Z,1006.5
2023-01-31T12:43:16.000Z,1006.7
2023-01-31T12:44:28.000Z,1006.5
2023-01-31T12:45:40.000Z,1006.6
2023-01-31T12:46:52.000Z,1006.5
2023-01-31T12:48:05.000Z,1006.5
2023-01-31T12:49:17.000Z,1006.5
2023-01-31T12:50:29.000Z,1006.4
2023-01-31T12:51:41.000Z,1006.5
2023-01-31T12:52:53.000Z,1006.5
2023-01-31T12:54:06.000Z,1006.5
2023-01-31T12:55:18.000Z,1006.6
2023-01-31T12:56:30.000Z,1006.5
2023-01-31T12:57:42.670Z,1006.5
2023-01-31T12:58:53.000Z,1006.6
2023-01-31T13:00:06.000Z,1006.6
2023-01-31T13:01:18.000Z,1006.5
2023-01-31T13:02:30.000Z,1006.5
2023-01-31T13:03:42.000Z,1006.5
2023-01-31T13:04:54.000Z,1006.5
2023-01-31T13:06:06.000Z,1006.4
2023-01-31T13:07:18.000Z,1006.6
2023-01-31T13:08:29.000Z,1006.5
2023-01-31T13:09:40.000Z,1006.5
2023-01-31T13:10:51.000Z,1006.5
2023-01-31T13:12:02.000Z,1006.5
2023-01-31T13:13:14.000Z,1006.5
2023-01-31T13:14:26.000Z,1006.5
2023-01-31T13:15:38.000Z,1006.5
2023-01-31T13:16:50.769Z,1006.4
2023-01-31T13:18:02.000Z,1006.4
2023-01-31T13:19:15.000Z,1006.3
2023-01-31T13:20:27.000Z,1006.3
2023-01-31T13:21:39.000Z,1006.2
2023-01-31T13:22:51.000Z,1006.1
2023-01-31T13:24:03.000Z,1006.2
2023-01-31T13:25:16.000Z,1006.2
2023-01-31T13:26:28.000Z,1006.3
2023-01-31T13:27:40.000Z,1006.2
2023-01-31T13:28:51.000Z,1006.2
2023-01-31T13:30:03.000Z,1006.1
2023-01-31T13:31:15.000Z,1006.2
2023-01-31T13:32:28.000Z,1006.2
2023-01-31T13:33:40.000Z,1006.1
2023-01-31T13:34:52.000Z,1006.1
2023-01-31T13:36:04.000Z,1006.2
2023-01-31T13:37:15.000Z,1006.2
2023-01-31T13:38:27.000Z,1006.2
2023-01-31T13:39:38.000Z,1006.1
2023-01-31T13:40:49.000Z,1006.2
2023-01-31T13:42:01.000Z,1006.2
2023-01-31T13:43:13.000Z,1006.1
2023-01-31T13:44:26.000Z,1006.1
2023-01-31T13:45:38.000Z,1006
2023-01-31T13:46:50.000Z,1006.1
2023-01-31T13:48:02.000Z,1006.2
2023-01-31T13:49:14.000Z,1006.2
2023-01-31T13:50:26.000Z,1006.2
2023-01-31T13:51:39.000Z,1006.1
2023-01-31T13:52:51.000Z,1006.2
2023-01-31T13:54:03.000Z,1006.1
2023-01-31T13:55:15.000Z,1006.2
2023-01-31T13:56:26.000Z,1006
2023-01-31T13:57:39.000Z,1006.1
2023-01-31T13:58:51.000Z,1006
2023-01-31T14:00:03.000Z,1006.1
2023-01-31T14:01:15.000Z,1006.1
2023-01-31T14:02:27.000Z,1006.1
2023-01-31T14:03:40.000Z,1006.1
2023-01-31T14:04:51.000Z,1006.2
2023-01-31T14:06:02.000Z,1006.2
2023-01-31T14:07:14.000Z,1006.1
2023-01-31T14:08:26.000Z,1006.1
2023-01-31T14:09:39.000Z,1006.2
2023-01-31T14:10:51.000Z,1006.1
2023-01-31T14:12:03.000Z,1006.1
2023-01-31T14:13:15.000Z,1006.1
2023-01-31T14:14:27.000Z,1006.1
2023-01-31T14:15:40.051Z,1006
2023-01-31T14:16:52.000Z,1006
2023-01-31T14:18:04.000Z,1006
2023-01-31T14:19:16.000Z,1006
2023-01-31T14:20:28.000Z,1006
2023-01-31T14:21:39.000Z,1006.1
2023-01-31T14:22:52.000Z,1006.1
2023-01-31T14:24:04.000Z,1006
2023-01-31T14:25:16.000Z,1006
2023-01-31T14:26:28.000Z,1006
2023-01-31T14:27:40.000Z,1006
2023-01-31T14:28:53.000Z,1006
2023-01-31T14:30:04.000Z,1005.9
2023-01-31T14:31:15.000Z,1006
2023-01-31T14:32:27.000Z,1006
2023-01-31T14:33:39.000Z,1006
2023-01-31T14:34:51.000Z,1006.1
2023-01-31T14:36:04.000Z,1005.9
2023-01-31T14:37:16.458Z,1006
2023-01-31T14:38:28.642Z,1006
2023-01-31T14:39:40.000Z,1006
2023-01-31T14:40:52.000Z,1006.1
2023-01-31T14:42:05.000Z,1006
2023-01-31T14:43:17.000Z,1006.1
2023-01-31T14:44:29.000Z,1006
2023-01-31T14:45:41.000Z,1006
2023-01-31T14:46:52.000Z,1006
2023-01-31T14:48:05.000Z,1006
2023-01-31T14:49:17.000Z,1006
2023-01-31T14:50:29.000Z,1006
2023-01-31T14:51:41.000Z,1006.1
2023-01-31T14:52:53.000Z,1006.1
2023-01-31T14:54:05.000Z,1006.1
2023-01-31T14:55:17.000Z,1006.1
2023-01-31T14:56:28.000Z,1006.1
2023-01-31T14:57:40.000Z,1006
2023-01-31T14:58:52.000Z,1006.2
2023-01-31T15:00:04.000Z,1006.1
2023-01-31T15:01:17.000Z,1006.2
2023-01-31T15:02:29.000Z,1006.1
2023-01-31T15:03:41.000Z,1006.2
2023-01-31T15:04:53.000Z,1006.2
2023-01-31T15:06:05.000Z,1006.1
2023-01-31T15:07:18.000Z,1006.1
2023-01-31T15:08:30.000Z,1006.1
2023-01-31T15:09:42.000Z,1006
2023-01-31T15:10:54.000Z,1006
2023-01-31T15:12:05.000Z,1006
2023-01-31T15:13:17.000Z,1005.9
2023-01-31T15:14:30.000Z,1006
2023-01-31T15:15:42.000Z,1005.9
2023-01-31T15:16:54.000Z,1006
2023-01-31T15:18:06.000Z,1005.9
2023-01-31T15:19:18.000Z,1005.9
2023-01-31T15:20:30.000Z,1006
2023-01-31T15:21:41.000Z,1006
2023-01-31T15:22:53.000Z,1005.9
2023-01-31T15:24:05.000Z,1005.8
2023-01-31T15:25:17.000Z,1005.8